createdAt,value
2019-02-20T00:00:43.000Z,17.07
2019-02-20T00:03:14.853Z,17.87
2019-02-20T00:05:49.712Z,17.25
2019-02-20T00:08:21.907Z,17.92
2019-02-20T00:10:54.759Z,17.20
2019-02-20T00:13:29.538Z,17.98
2019-02-20T00:16:01.370Z,18.25
2019-02-20T00:18:35.599Z,16.87
2019-02-20T00:21:07.453Z,17.65
2019-02-20T00:23:39.283Z,16.32
2019-02-20T00:26:11.108Z,16.97
2019-02-20T00:28:42.963Z,18.12
2019-02-20T00:31:15.960Z,17.15
2019-02-20T00:33:47.825Z,18.12
2019-02-20T00:36:24.381Z,18.40
2019-02-20T00:38:57.910Z,17.35
2019-02-20T00:41:29.730Z,18.40
2019-02-20T00:44:15.368Z,18.02
2019-02-20T00:47:27.115Z,17.85
2019-02-20T00:49:59.057Z,18.20
2019-02-20T00:52:50.147Z,18.32
2019-02-20T00:55:25.139Z,18.87
2019-02-20T00:57:56.978Z,19.45
2019-02-20T01:00:30.580Z,19.42
2019-02-20T01:03:03.979Z,18.35
2019-02-20T01:05:35.820Z,18.12
2019-02-20T01:08:09.051Z,20.05
2019-02-20T01:10:43.458Z,19.87
2019-02-20T01:13:18.120Z,19.27
2019-02-20T01:15:50.000Z,21.05
2019-02-20T01:18:21.845Z,20.62
2019-02-20T01:20:56.116Z,21.07
2019-02-20T01:23:29.689Z,21.95
2019-02-20T01:26:01.538Z,22.58
2019-02-20T01:28:36.460Z,22.93
2019-02-20T01:31:09.370Z,23.05
2019-02-20T01:33:42.421Z,22.07
2019-02-20T01:36:14.239Z,22.70
2019-02-20T01:38:46.110Z,20.52
2019-02-20T01:41:19.107Z,20.23
2019-02-20T01:43:53.973Z,19.92
2019-02-20T01:46:29.002Z,19.60
2019-02-20T01:49:00.876Z,21.15
2019-02-20T01:51:32.726Z,19.37
2019-02-20T01:54:06.583Z,20.12
2019-02-20T01:56:38.451Z,19.23
2019-02-20T01:59:12.758Z,17.80
2019-02-20T02:01:44.586Z,17.92
2019-02-20T02:04:16.522Z,19.23
2019-02-20T02:06:48.395Z,19.75
2019-02-20T02:09:20.247Z,19.25
2019-02-20T02:11:52.079Z,19.42
2019-02-20T02:14:23.951Z,19.35
2019-02-20T02:17:00.332Z,19.77
2019-02-20T02:19:38.789Z,21.12
2019-02-20T02:22:13.487Z,21.07
2019-02-20T02:24:45.551Z,19.80
2019-02-20T02:27:17.427Z,19.77
2019-02-20T02:29:50.411Z,20.68
2019-02-20T02:32:22.317Z,20.82
2019-02-20T02:34:54.175Z,21.42
2019-02-20T02:37:26.076Z,21.48
2019-02-20T02:39:57.924Z,21.23
2019-02-20T02:42:29.807Z,21.02
2019-02-20T02:45:01.677Z,20.43
2019-02-20T02:47:33.556Z,20.40
2019-02-20T02:50:05.681Z,19.40
2019-02-20T02:52:37.550Z,20.55
2019-02-20T02:55:17.188Z,20.25
2019-02-20T02:57:51.038Z,20.60
2019-02-20T03:00:21.667Z,19.82
2019-02-20T03:02:53.518Z,18.65
2019-02-20T03:05:27.003Z,18.95
2019-02-20T03:08:00.133Z,19.40
2019-02-20T03:10:33.519Z,18.55
2019-02-20T03:13:10.232Z,18.95
2019-02-20T03:15:42.099Z,18.07
2019-02-20T03:18:15.038Z,19.15
2019-02-20T03:20:46.893Z,17.45
2019-02-20T03:23:21.497Z,20.62
2019-02-20T03:25:53.620Z,19.05
2019-02-20T03:28:25.455Z,20.97
2019-02-20T03:30:57.316Z,21.75
2019-02-20T03:33:29.145Z,20.72
2019-02-20T03:36:01.047Z,20.15
2019-02-20T03:38:32.905Z,22.60
2019-02-20T03:41:04.796Z,23.25
2019-02-20T03:43:36.611Z,22.30
2019-02-20T03:46:09.746Z,23.50
2019-02-20T03:48:41.618Z,24.05
2019-02-20T03:51:13.423Z,24.07
2019-02-20T03:53:51.411Z,24.47
2019-02-20T03:56:18.840Z,23.45
2019-02-20T03:58:50.799Z,24.20
2019-02-20T04:01:22.612Z,23.10
2019-02-20T04:03:54.453Z,23.67
2019-02-20T04:06:26.300Z,23.73
2019-02-20T04:08:59.215Z,24.92
2019-02-20T04:11:31.082Z,22.42
2019-02-20T04:14:05.506Z,22.48
2019-02-20T04:16:37.368Z,21.93
2019-02-20T04:19:09.246Z,21.17
2019-02-20T04:21:42.261Z,23.92
2019-02-20T04:24:14.146Z,22.80
2019-02-20T04:26:45.965Z,22.50
2019-02-20T04:29:17.813Z,22.25
2019-02-20T04:31:49.639Z,24.63
2019-02-20T04:34:21.490Z,26.05
2019-02-20T04:36:53.351Z,24.25
2019-02-20T04:39:25.235Z,27.17
2019-02-20T04:41:57.057Z,24.80
2019-02-20T04:44:29.977Z,26.05
2019-02-20T04:47:01.809Z,27.70
2019-02-20T04:49:33.688Z,25.12
2019-02-20T04:52:05.494Z,27.60
2019-02-20T04:54:37.378Z,28.30
2019-02-20T04:57:09.211Z,29.52
2019-02-20T04:59:42.313Z,27.10
2019-02-20T05:02:14.135Z,27.62
2019-02-20T05:04:45.962Z,28.17
2019-02-20T05:07:21.962Z,26.68
2019-02-20T05:09:57.356Z,27.90
2019-02-20T05:12:29.197Z,29.12
2019-02-20T05:15:01.062Z,27.40
2019-02-20T05:17:32.898Z,28.20
2019-02-20T05:20:05.060Z,28.77
2019-02-20T05:22:37.110Z,28.70
2019-02-20T05:25:08.949Z,29.72
2019-02-20T05:27:40.797Z,27.25
2019-02-20T05:30:12.637Z,28.55
2019-02-20T05:32:44.460Z,26.73
2019-02-20T05:35:22.354Z,28.20
2019-02-20T05:37:54.194Z,26.45
2019-02-20T05:40:26.044Z,26.05
2019-02-20T05:42:57.888Z,28.50
2019-02-20T05:45:29.722Z,23.05
2019-02-20T05:48:01.563Z,21.42
2019-02-20T05:50:33.404Z,23.40
2019-02-20T05:53:05.261Z,23.75
2019-02-20T05:55:37.154Z,25.55
2019-02-20T05:58:09.109Z,28.07
2019-02-20T06:00:40.949Z,25.02
2019-02-20T06:03:12.792Z,26.10
2019-02-20T06:05:44.625Z,23.07
2019-02-20T06:08:18.139Z,25.08
2019-02-20T06:10:50.019Z,24.27
2019-02-20T06:13:23.034Z,23.87
2019-02-20T06:15:56.545Z,22.32
2019-02-20T06:18:28.390Z,20.60
2019-02-20T06:21:00.242Z,23.62
2019-02-20T06:23:32.063Z,27.13
2019-02-20T06:26:06.650Z,23.57
2019-02-20T06:28:40.141Z,22.35
2019-02-20T06:31:15.021Z,22.65
2019-02-20T06:33:46.867Z,25.57
2019-02-20T06:36:18.820Z,25.77
2019-02-20T06:38:53.732Z,29.98
2019-02-20T06:41:27.261Z,27.42
2019-02-20T06:43:59.106Z,21.97
2019-02-20T06:46:30.938Z,29.18
2019-02-20T06:49:02.762Z,26.57
2019-02-20T06:51:34.616Z,23.50
2019-02-20T06:54:09.205Z,25.32
2019-02-20T06:56:47.019Z,24.45
2019-02-20T06:59:18.903Z,21.80
2019-02-20T07:01:50.779Z,22.48
2019-02-20T07:04:25.710Z,23.00
2019-02-20T07:07:26.856Z,23.60
2019-02-20T07:11:25.786Z,24.10
2019-02-20T07:14:38.853Z,22.02
2019-02-20T07:18:15.311Z,24.35
2019-02-20T07:21:38.373Z,27.55
2019-02-20T07:24:42.871Z,30.50
2019-02-20T07:28:13.022Z,31.12
2019-02-20T07:30:44.887Z,28.85
2019-02-20T07:33:21.738Z,26.52
2019-02-20T07:35:53.589Z,24.23
2019-02-20T07:38:25.484Z,22.52
2019-02-20T07:41:00.544Z,23.05
2019-02-20T07:43:30.990Z,22.93
2019-02-20T07:46:02.855Z,22.13
2019-02-20T07:48:45.430Z,24.02
2019-02-20T07:51:19.311Z,24.45
2019-02-20T07:53:50.810Z,24.30
2019-02-20T07:56:24.132Z,27.67
2019-02-20T07:58:55.714Z,25.97
2019-02-20T08:01:27.576Z,26.10
2019-02-20T08:03:59.135Z,24.77
2019-02-20T08:06:39.952Z,25.93
2019-02-20T08:09:13.534Z,27.22
2019-02-20T08:11:45.400Z,24.92
2019-02-20T08:14:18.095Z,24.97
2019-02-20T08:16:52.928Z,24.70
2019-02-20T08:19:24.566Z,25.43
2019-02-20T08:21:57.409Z,26.07
2019-02-20T08:24:32.066Z,26.20
2019-02-20T08:27:02.286Z,24.80
2019-02-20T08:29:38.789Z,23.60
2019-02-20T08:32:11.563Z,24.17
2019-02-20T08:34:43.153Z,28.10
2019-02-20T08:37:14.707Z,24.53
2019-02-20T08:39:48.583Z,25.57
2019-02-20T08:42:29.316Z,24.40
2019-02-20T08:45:00.908Z,23.30
2019-02-20T08:47:32.528Z,24.90
2019-02-20T08:50:04.231Z,24.50
2019-02-20T08:52:37.410Z,23.87
2019-02-20T08:55:10.638Z,23.67
2019-02-20T08:57:42.128Z,23.10
2019-02-20T09:00:16.148Z,23.40
2019-02-20T09:02:50.734Z,21.50
2019-02-20T09:05:22.334Z,20.57
2019-02-20T09:07:56.747Z,20.80
2019-02-20T09:10:28.323Z,21.50
2019-02-20T09:13:03.133Z,19.90
2019-02-20T09:15:35.793Z,20.70
2019-02-20T09:18:08.352Z,19.10
2019-02-20T09:20:41.532Z,19.40
2019-02-20T09:23:13.113Z,21.50
2019-02-20T09:25:44.683Z,20.43
2019-02-20T09:28:17.324Z,22.30
2019-02-20T09:30:51.486Z,21.37
2019-02-20T09:33:23.060Z,21.60
2019-02-20T09:35:54.637Z,20.70
2019-02-20T09:38:26.234Z,22.00
2019-02-20T09:40:57.767Z,21.87
2019-02-20T09:43:29.351Z,20.70
2019-02-20T09:46:01.977Z,21.00
2019-02-20T09:48:33.593Z,21.73
2019-02-20T09:51:05.144Z,23.07
2019-02-20T09:53:36.771Z,20.80
2019-02-20T09:56:08.406Z,20.47
2019-02-20T09:58:43.180Z,20.53
2019-02-20T10:01:14.768Z,21.97
2019-02-20T10:03:46.385Z,20.00
2019-02-20T10:06:17.948Z,21.20
2019-02-20T10:08:49.617Z,20.77
2019-02-20T10:11:22.461Z,19.27
2019-02-20T10:13:54.047Z,19.23
2019-02-20T10:16:25.652Z,19.13
2019-02-20T10:18:57.245Z,20.33
2019-02-20T10:21:28.936Z,19.50
2019-02-20T10:24:00.558Z,19.50
2019-02-20T10:26:33.431Z,20.17
2019-02-20T10:29:05.181Z,19.07
2019-02-20T10:31:36.749Z,20.10
2019-02-20T10:34:08.342Z,20.17
2019-02-20T10:36:39.972Z,20.57
2019-02-20T10:39:11.580Z,19.50
2019-02-20T10:41:43.136Z,20.57
2019-02-20T10:44:14.699Z,19.60
2019-02-20T10:46:46.298Z,18.33
2019-02-20T10:49:17.871Z,20.03
2019-02-20T10:51:49.497Z,20.60
2019-02-20T10:54:21.062Z,20.40
2019-02-20T10:56:52.635Z,19.60
2019-02-20T10:59:24.196Z,18.77
2019-02-20T11:01:56.103Z,21.47
2019-02-20T11:04:27.701Z,18.80
2019-02-20T11:06:59.278Z,17.07
2019-02-20T11:09:31.908Z,16.97
2019-02-20T11:12:03.908Z,15.72
2019-02-20T11:14:35.676Z,16.03
2019-02-20T11:17:08.345Z,16.80
2019-02-20T11:19:39.901Z,15.17
2019-02-20T11:22:11.501Z,14.60
2019-02-20T11:24:43.066Z,12.60
2019-02-20T11:27:14.686Z,12.80
2019-02-20T11:29:46.267Z,13.10
2019-02-20T11:32:17.859Z,12.77
2019-02-20T11:34:49.448Z,12.10
2019-02-20T11:37:23.369Z,13.43
2019-02-20T11:39:56.022Z,14.30
2019-02-20T11:42:27.624Z,16.70
2019-02-20T11:44:59.176Z,14.00
2019-02-20T11:47:30.769Z,13.87
2019-02-20T11:50:03.518Z,13.37
2019-02-20T11:52:38.280Z,11.73
2019-02-20T11:55:08.866Z,12.13
2019-02-20T11:57:40.629Z,11.80
2019-02-20T12:00:13.139Z,11.90
2019-02-20T12:02:44.703Z,11.33
2019-02-20T12:05:17.920Z,11.13
2019-02-20T12:07:49.601Z,11.70
2019-02-20T12:10:21.265Z,10.83
2019-02-20T12:12:52.849Z,10.97
2019-02-20T12:15:24.433Z,11.83
2019-02-20T12:17:55.984Z,11.47
2019-02-20T12:20:28.085Z,12.90
2019-02-20T12:22:59.630Z,11.90
2019-02-20T12:25:31.255Z,11.63
2019-02-20T12:28:02.821Z,9.67
2019-02-20T12:30:34.469Z,9.80
2019-02-20T12:33:06.133Z,10.00
2019-02-20T12:35:37.710Z,9.77
2019-02-20T12:38:09.284Z,9.53
2019-02-20T12:40:40.883Z,10.33
2019-02-20T12:43:12.456Z,10.03
2019-02-20T12:45:44.048Z,10.20
2019-02-20T12:48:15.911Z,13.70
2019-02-20T12:50:47.567Z,10.00
2019-02-20T12:53:19.165Z,10.53
2019-02-20T12:55:58.910Z,11.70
2019-02-20T12:58:30.729Z,11.95
2019-02-20T13:01:02.764Z,10.97
2019-02-20T13:03:36.676Z,12.50
2019-02-20T13:06:08.491Z,11.27
2019-02-20T13:08:40.106Z,11.10
2019-02-20T13:11:11.696Z,11.80
2019-02-20T13:13:43.548Z,11.50
2019-02-20T13:16:15.234Z,11.70
2019-02-20T13:18:48.144Z,12.17
2019-02-20T13:21:19.738Z,12.70
2019-02-20T13:23:51.313Z,11.80
2019-02-20T13:26:22.891Z,10.67
2019-02-20T13:28:59.718Z,12.75
2019-02-20T13:31:31.340Z,12.70
2019-02-20T13:34:02.881Z,11.70
2019-02-20T13:36:34.433Z,12.70
2019-02-20T13:39:07.030Z,12.30
2019-02-20T13:41:40.586Z,12.60
2019-02-20T13:44:13.875Z,11.03
2019-02-20T13:46:48.227Z,10.73
2019-02-20T13:49:19.907Z,10.07
2019-02-20T13:51:51.532Z,11.13
2019-02-20T13:54:23.133Z,10.50
2019-02-20T13:57:01.667Z,11.03
2019-02-20T13:59:27.999Z,10.40
2019-02-20T14:02:00.996Z,10.17
2019-02-20T14:04:33.644Z,10.80
2019-02-20T14:07:05.226Z,11.10
2019-02-20T14:09:36.783Z,10.73
2019-02-20T14:12:08.694Z,11.12
2019-02-20T14:14:40.563Z,11.00
2019-02-20T14:17:12.207Z,11.57
2019-02-20T14:19:43.804Z,11.10
2019-02-20T14:22:15.397Z,10.53
2019-02-20T14:24:46.968Z,10.67
2019-02-20T14:27:19.540Z,10.30
2019-02-20T14:29:51.132Z,10.50
2019-02-20T14:32:22.764Z,10.13
2019-02-20T14:34:54.362Z,10.37
2019-02-20T14:37:25.951Z,10.53
2019-02-20T14:39:57.812Z,10.80
2019-02-20T14:42:29.400Z,15.70
2019-02-20T14:45:01.449Z,16.67
2019-02-20T14:47:33.522Z,11.90
2019-02-20T14:50:05.726Z,12.10
2019-02-20T14:52:38.785Z,14.57
2019-02-20T14:55:10.791Z,12.20
2019-02-20T14:57:43.051Z,11.93
2019-02-20T15:00:14.995Z,11.10
2019-02-20T15:02:46.730Z,11.77
2019-02-20T15:05:19.919Z,12.47
2019-02-20T15:07:51.614Z,11.57
2019-02-20T15:10:23.209Z,10.67
2019-02-20T15:12:54.789Z,11.40
2019-02-20T15:15:26.377Z,11.00
2019-02-20T15:17:57.982Z,11.27
2019-02-20T15:20:29.560Z,12.83
2019-02-20T15:23:01.172Z,13.43
2019-02-20T15:25:32.871Z,12.70
2019-02-20T15:28:04.736Z,11.00
2019-02-20T15:30:39.468Z,10.93
2019-02-20T15:33:11.152Z,10.53
2019-02-20T15:35:42.751Z,11.50
2019-02-20T15:38:14.640Z,11.95
2019-02-20T15:40:46.198Z,10.27
2019-02-20T15:43:17.783Z,11.47
2019-02-20T15:45:49.489Z,12.20
2019-02-20T15:48:23.290Z,10.27
2019-02-20T15:50:54.486Z,11.03
2019-02-20T15:53:26.085Z,10.30
2019-02-20T15:56:00.743Z,13.20
2019-02-20T15:58:32.485Z,19.47
2019-02-20T16:01:05.737Z,30.47
2019-02-20T16:03:37.481Z,13.23
2019-02-20T16:06:09.114Z,12.30
2019-02-20T16:08:40.734Z,11.50
2019-02-20T16:11:12.720Z,12.30
2019-02-20T16:13:44.368Z,12.67
2019-02-20T16:16:16.028Z,12.30
2019-02-20T16:18:47.620Z,10.70
2019-02-20T16:21:19.186Z,12.83
2019-02-20T16:23:50.827Z,12.43
2019-02-20T16:26:25.491Z,11.03
2019-02-20T16:28:57.056Z,11.10
2019-02-20T16:31:31.489Z,10.73
2019-02-20T16:34:03.375Z,13.57
2019-02-20T16:36:35.054Z,12.47
2019-02-20T16:39:07.421Z,11.80
2019-02-20T16:41:39.151Z,11.70
2019-02-20T16:44:10.766Z,11.80
2019-02-20T16:46:42.319Z,11.93
2019-02-20T16:49:13.929Z,26.17
2019-02-20T16:51:45.512Z,14.80
2019-02-20T16:54:17.094Z,14.90
2019-02-20T16:56:48.641Z,12.87
2019-02-20T16:59:20.238Z,15.30
2019-02-20T17:01:53.114Z,14.70
2019-02-20T17:04:24.974Z,13.40
2019-02-20T17:06:56.607Z,12.37
2019-02-20T17:09:28.224Z,11.13
2019-02-20T17:12:01.395Z,12.30
2019-02-20T17:14:33.214Z,23.40
2019-02-20T17:17:05.005Z,16.90
2019-02-20T17:19:38.167Z,14.03
2019-02-20T17:22:09.873Z,12.90
2019-02-20T17:24:41.514Z,16.07
2019-02-20T17:27:13.094Z,14.30
2019-02-20T17:29:44.715Z,18.43
2019-02-20T17:32:16.340Z,13.37
2019-02-20T17:34:47.942Z,15.57
2019-02-20T17:37:21.190Z,14.20
2019-02-20T17:39:53.829Z,13.23
2019-02-20T17:42:25.454Z,12.60
2019-02-20T17:44:57.020Z,12.37
2019-02-20T17:47:29.686Z,12.83
2019-02-20T17:50:02.336Z,15.40
2019-02-20T17:52:34.062Z,14.17
2019-02-20T17:55:06.086Z,15.97
2019-02-20T17:57:37.757Z,11.27
2019-02-20T18:00:11.661Z,13.13
2019-02-20T18:02:43.431Z,19.73
2019-02-20T18:05:15.122Z,18.57
2019-02-20T18:07:51.477Z,14.50
2019-02-20T18:10:20.016Z,14.07
2019-02-20T18:12:53.108Z,14.00
2019-02-20T18:15:24.687Z,17.77
2019-02-20T18:17:56.285Z,23.73
2019-02-20T18:20:27.908Z,18.07
2019-02-20T18:22:59.990Z,18.63
2019-02-20T18:25:31.562Z,23.10
2019-02-20T18:28:03.293Z,21.30
2019-02-20T18:30:36.064Z,21.20
2019-02-20T18:33:07.680Z,24.70
2019-02-20T18:35:39.417Z,22.40
2019-02-20T18:38:11.051Z,20.47
2019-02-20T18:40:42.657Z,21.40
2019-02-20T18:43:14.289Z,16.90
2019-02-20T18:45:45.984Z,16.50
2019-02-20T18:48:17.610Z,17.30
2019-02-20T18:50:49.280Z,23.20
2019-02-20T18:53:21.018Z,20.40
2019-02-20T18:55:52.628Z,16.47
2019-02-20T18:58:33.500Z,16.23
2019-02-20T19:00:57.607Z,15.57
2019-02-20T19:03:29.268Z,17.07
2019-02-20T19:06:01.113Z,20.27
2019-02-20T19:08:40.321Z,22.17
2019-02-20T19:11:38.331Z,20.67
2019-02-20T19:14:23.870Z,17.50
2019-02-20T19:17:46.305Z,15.37
2019-02-20T19:21:15.453Z,15.57
2019-02-20T19:24:41.388Z,16.80
2019-02-20T19:27:45.648Z,17.23
2019-02-20T19:31:24.323Z,16.00
2019-02-20T19:35:06.248Z,15.43
2019-02-20T19:38:51.497Z,17.27
2019-02-20T19:42:18.663Z,16.07
2019-02-20T19:45:53.238Z,15.80
2019-02-20T19:49:16.033Z,17.30
2019-02-20T19:53:00.334Z,16.07
2019-02-20T19:56:17.787Z,14.67
2019-02-20T19:59:28.780Z,15.83
2019-02-20T20:03:06.738Z,16.03
2019-02-20T20:06:25.999Z,16.90
2019-02-20T20:10:06.882Z,16.20
2019-02-20T20:13:26.425Z,18.33
2019-02-20T20:17:01.781Z,20.20
2019-02-20T20:20:35.693Z,16.87
2019-02-20T20:24:25.606Z,14.70
2019-02-20T20:28:01.712Z,14.33
2019-02-20T20:31:36.944Z,16.80
2019-02-20T20:35:03.489Z,16.57
2019-02-20T20:38:08.625Z,15.30
2019-02-20T20:41:47.571Z,16.90
2019-02-20T20:45:23.415Z,14.90
2019-02-20T20:48:55.494Z,15.30
2019-02-20T20:52:27.328Z,14.70
2019-02-20T20:55:35.949Z,14.07
2019-02-20T20:58:46.823Z,16.50
2019-02-20T21:01:58.533Z,21.30
2019-02-20T21:05:39.379Z,20.47
2019-02-20T21:08:52.701Z,22.97
2019-02-20T21:13:04.150Z,17.50
2019-02-20T21:16:31.268Z,17.13
2019-02-20T21:19:40.923Z,16.37
2019-02-20T21:23:19.903Z,15.10
2019-02-20T21:26:53.984Z,16.60
2019-02-20T21:30:14.852Z,15.90
2019-02-20T21:34:03.322Z,15.73
2019-02-20T21:36:53.047Z,18.10
2019-02-20T21:39:59.285Z,17.50
2019-02-20T21:43:26.616Z,20.73
2019-02-20T21:46:48.620Z,18.10
2019-02-20T21:50:28.043Z,17.30
2019-02-20T21:53:41.292Z,15.97
2019-02-20T21:56:42.372Z,15.00
2019-02-20T22:00:15.818Z,14.70
2019-02-20T22:03:49.914Z,14.37
2019-02-20T22:06:56.767Z,13.20
2019-02-20T22:09:58.141Z,14.50
2019-02-20T22:13:26.131Z,15.03
2019-02-20T22:16:54.633Z,15.30
2019-02-20T22:20:27.184Z,14.70
2019-02-20T22:23:56.804Z,15.00
2019-02-20T22:27:23.479Z,14.87
2019-02-20T22:31:05.406Z,16.50
2019-02-20T22:34:16.547Z,15.10
2019-02-20T22:37:58.190Z,14.83
2019-02-20T22:41:40.542Z,15.70
2019-02-20T22:45:02.146Z,16.20
2019-02-20T22:48:29.712Z,14.70
2019-02-20T22:52:08.955Z,16.27
2019-02-20T22:56:01.925Z,16.93
2019-02-20T22:58:55.536Z,15.70
2019-02-20T23:02:43.838Z,15.40
2019-02-20T23:06:10.979Z,15.50
2019-02-20T23:09:12.909Z,15.93
2019-02-20T23:12:06.056Z,14.13
2019-02-20T23:15:08.703Z,14.93
2019-02-20T23:17:40.281Z,13.93
2019-02-20T23:20:13.179Z,13.20
2019-02-20T23:22:44.761Z,14.07
2019-02-20T23:25:16.369Z,14.13
2019-02-20T23:27:47.962Z,14.20
2019-02-20T23:30:19.603Z,14.30
2019-02-20T23:32:56.623Z,15.00
2019-02-20T23:35:24.425Z,12.83
2019-02-20T23:37:55.999Z,14.40
2019-02-20T23:40:27.802Z,14.30
2019-02-20T23:42:59.625Z,14.73
2019-02-20T23:45:31.169Z,14.57
2019-02-20T23:48:02.733Z,15.33
2019-02-20T23:50:34.310Z,14.00
2019-02-20T23:53:06.456Z,14.30
2019-02-20T23:55:37.996Z,13.73
2019-02-20T23:58:09.846Z,14.10
